sensor_id;sensor_type;location;lat;lon;timestamp;temperature;humidity
10911;DHT22;5508;49.150;11.030;2022-12-07T00:01:12;1.30;99.90
10911;DHT22;5508;49.150;11.030;2022-12-07T00:04:16;1.30;99.90
10911;DHT22;5508;49.150;11.030;2022-12-07T00:07:16;1.30;99.90
10911;DHT22;5508;49.150;11.030;2022-12-07T00:10:17;1.30;99.90
10911;DHT22;5508;49.150;11.030;2022-12-07T00:13:18;1.30;99.90
10911;DHT22;5508;49.150;11.030;2022-12-07T00:16:20;1.30;99.90
10911;DHT22;5508;49.150;11.030;2022-12-07T00:19:21;1.20;99.90
10911;DHT22;5508;49.150;11.030;2022-12-07T00:22:21;1.20;99.90
10911;DHT22;5508;49.150;11.030;2022-12-07T00:25:22;1.30;99.90
10911;DHT22;5508;49.150;11.030;2022-12-07T00:28:23;1.30;99.90
10911;DHT22;5508;49.150;11.030;2022-12-07T00:31:26;1.20;99.90
10911;DHT22;5508;49.150;11.030;2022-12-07T00:34:27;1.20;99.90
10911;DHT22;5508;49.150;11.030;2022-12-07T00:37:28;1.20;99.90
10911;DHT22;5508;49.150;11.030;2022-12-07T00:40:28;1.20;99.90
10911;DHT22;5508;49.150;11.030;2022-12-07T00:43:29;1.20;99.90
10911;DHT22;5508;49.150;11.030;2022-12-07T00:46:30;1.20;99.90
10911;DHT22;5508;49.150;11.030;2022-12-07T00:49:31;1.20;99.90
10911;DHT22;5508;49.150;11.030;2022-12-07T00:52:31;1.20;99.90
10911;DHT22;5508;49.150;11.030;2022-12-07T00:55:35;1.20;99.90
10911;DHT22;5508;49.150;11.030;2022-12-07T00:58:36;1.20;99.90
10911;DHT22;5508;49.150;11.030;2022-12-07T01:01:37;1.20;99.90
10911;DHT22;5508;49.150;11.030;2022-12-07T01:04:37;1.20;99.90
10911;DHT22;5508;49.150;11.030;2022-12-07T01:07:38;1.20;99.90
10911;DHT22;5508;49.150;11.030;2022-12-07T01:10:38;1.20;99.90
10911;DHT22;5508;49.150;11.030;2022-12-07T01:13:39;1.30;99.90
10911;DHT22;5508;49.150;11.030;2022-12-07T01:16:40;1.30;99.90
10911;DHT22;5508;49.150;11.030;2022-12-07T01:19:40;1.20;99.90
10911;DHT22;5508;49.150;11.030;2022-12-07T01:22:42;1.30;99.90
10911;DHT22;5508;49.150;11.030;2022-12-07T01:25:43;1.30;99.90
10911;DHT22;5508;49.150;11.030;2022-12-07T01:28:46;1.30;99.90
10911;DHT22;5508;49.150;11.030;2022-12-07T01:31:48;1.30;99.90
10911;DHT22;5508;49.150;11.030;2022-12-07T01:34:49;1.30;99.90
10911;DHT22;5508;49.150;11.030;2022-12-07T01:37:50;1.30;99.90
10911;DHT22;5508;49.150;11.030;2022-12-07T01:40:55;1.20;99.90
10911;DHT22;5508;49.150;11.030;2022-12-07T01:44:16;1.20;99.90
10911;DHT22;5508;49.150;11.030;2022-12-07T01:47:17;1.20;99.90
10911;DHT22;5508;49.150;11.030;2022-12-07T01:50:18;1.10;99.90
10911;DHT22;5508;49.150;11.030;2022-12-07T01:53:19;1.20;99.90
10911;DHT22;5508;49.150;11.030;2022-12-07T01:56:23;1.20;99.90
10911;DHT22;5508;49.150;11.030;2022-12-07T01:59:25;1.20;99.90
10911;DHT22;5508;49.150;11.030;2022-12-07T02:02:29;1.20;99.90
10911;DHT22;5508;49.150;11.030;2022-12-07T02:05:33;1.10;99.90
10911;DHT22;5508;49.150;11.030;2022-12-07T02:08:35;1.10;99.90
10911;DHT22;5508;49.150;11.030;2022-12-07T02:11:36;1.10;99.90
10911;DHT22;5508;49.150;11.030;2022-12-07T02:14:37;1.10;99.90
10911;DHT22;5508;49.150;11.030;2022-12-07T02:18:00;1.10;99.90
10911;DHT22;5508;49.150;11.030;2022-12-07T02:24:57;1.10;99.90
10911;DHT22;5508;49.150;11.030;2022-12-07T02:28:34;1.00;99.90
10911;DHT22;5508;49.150;11.030;2022-12-07T02:31:37;1.00;99.90
10911;DHT22;5508;49.150;11.030;2022-12-07T02:34:50;1.00;99.90
10911;DHT22;5508;49.150;11.030;2022-12-07T02:38:02;1.00;99.90
10911;DHT22;5508;49.150;11.030;2022-12-07T02:41:06;1.00;99.90
10911;DHT22;5508;49.150;11.030;2022-12-07T02:44:11;1.00;99.90
10911;DHT22;5508;49.150;11.030;2022-12-07T02:47:15;1.00;99.90
10911;DHT22;5508;49.150;11.030;2022-12-07T02:50:20;1.00;99.90
10911;DHT22;5508;49.150;11.030;2022-12-07T02:53:34;1.00;99.90
10911;DHT22;5508;49.150;11.030;2022-12-07T03:00:09;1.10;99.90
10911;DHT22;5508;49.150;11.030;2022-12-07T03:03:14;1.00;99.90
10911;DHT22;5508;49.150;11.030;2022-12-07T03:06:31;1.00;99.90
10911;DHT22;5508;49.150;11.030;2022-12-07T03:09:41;0.90;99.90
10911;DHT22;5508;49.150;11.030;2022-12-07T03:12:57;0.90;99.90
10911;DHT22;5508;49.150;11.030;2022-12-07T03:19:08;0.70;99.90
10911;DHT22;5508;49.150;11.030;2022-12-07T03:22:12;0.60;99.90
10911;DHT22;5508;49.150;11.030;2022-12-07T03:25:15;0.50;99.90
10911;DHT22;5508;49.150;11.030;2022-12-07T03:28:19;0.50;99.90
10911;DHT22;5508;49.150;11.030;2022-12-07T03:31:29;0.40;99.90
10911;DHT22;5508;49.150;11.030;2022-12-07T03:34:38;0.40;99.90
10911;DHT22;5508;49.150;11.030;2022-12-07T03:37:53;0.30;99.90
10911;DHT22;5508;49.150;11.030;2022-12-07T03:43:59;0.20;99.90
10911;DHT22;5508;49.150;11.030;2022-12-07T03:47:08;0.10;99.90
10911;DHT22;5508;49.150;11.030;2022-12-07T03:50:25;0.10;99.90
10911;DHT22;5508;49.150;11.030;2022-12-07T03:53:38;0.10;99.90
10911;DHT22;5508;49.150;11.030;2022-12-07T03:56:42;0.00;99.90
10911;DHT22;5508;49.150;11.030;2022-12-07T03:59:44;-0.20;99.90
10911;DHT22;5508;49.150;11.030;2022-12-07T04:02:45;-0.10;99.90
10911;DHT22;5508;49.150;11.030;2022-12-07T04:05:46;-0.10;99.90
10911;DHT22;5508;49.150;11.030;2022-12-07T04:08:46;-0.10;99.90
10911;DHT22;5508;49.150;11.030;2022-12-07T04:11:47;-0.10;99.90
10911;DHT22;5508;49.150;11.030;2022-12-07T04:14:48;-0.10;99.90
10911;DHT22;5508;49.150;11.030;2022-12-07T04:17:48;-0.10;99.90
10911;DHT22;5508;49.150;11.030;2022-12-07T04:20:49;-0.20;99.90
10911;DHT22;5508;49.150;11.030;2022-12-07T04:23:49;-0.20;99.90
10911;DHT22;5508;49.150;11.030;2022-12-07T04:26:50;-0.20;99.90
10911;DHT22;5508;49.150;11.030;2022-12-07T04:29:51;-0.30;99.90
10911;DHT22;5508;49.150;11.030;2022-12-07T04:32:51;-0.30;99.90
10911;DHT22;5508;49.150;11.030;2022-12-07T04:35:52;-0.40;99.90
10911;DHT22;5508;49.150;11.030;2022-12-07T04:38:54;-0.50;99.90
10911;DHT22;5508;49.150;11.030;2022-12-07T04:41:55;-0.60;99.90
10911;DHT22;5508;49.150;11.030;2022-12-07T04:44:56;-0.60;99.90
10911;DHT22;5508;49.150;11.030;2022-12-07T04:47:57;-0.60;99.90
10911;DHT22;5508;49.150;11.030;2022-12-07T04:50:57;-0.70;99.90
10911;DHT22;5508;49.150;11.030;2022-12-07T04:53:58;-0.70;99.90
10911;DHT22;5508;49.150;11.030;2022-12-07T04:56:59;-0.80;99.90
10911;DHT22;5508;49.150;11.030;2022-12-07T04:59:59;-0.70;99.90
10911;DHT22;5508;49.150;11.030;2022-12-07T05:03:00;-0.60;99.90
10911;DHT22;5508;49.150;11.030;2022-12-07T05:06:00;-0.60;99.90
10911;DHT22;5508;49.150;11.030;2022-12-07T05:09:02;-0.70;99.90
10911;DHT22;5508;49.150;11.030;2022-12-07T05:12:03;-0.70;99.90
10911;DHT22;5508;49.150;11.030;2022-12-07T05:15:04;-0.60;99.90
10911;DHT22;5508;49.150;11.030;2022-12-07T05:18:05;-0.70;99.90
10911;DHT22;5508;49.150;11.030;2022-12-07T05:21:06;-0.70;99.90
10911;DHT22;5508;49.150;11.030;2022-12-07T05:24:08;-0.70;99.90
10911;DHT22;5508;49.150;11.030;2022-12-07T05:27:08;-0.80;99.90
10911;DHT22;5508;49.150;11.030;2022-12-07T05:30:09;-0.80;99.90
10911;DHT22;5508;49.150;11.030;2022-12-07T05:33:10;-0.70;99.90
10911;DHT22;5508;49.150;11.030;2022-12-07T05:36:10;-0.80;99.90
10911;DHT22;5508;49.150;11.030;2022-12-07T05:39:11;-0.70;99.90
10911;DHT22;5508;49.150;11.030;2022-12-07T05:42:12;-0.70;99.90
10911;DHT22;5508;49.150;11.030;2022-12-07T05:45:12;-0.70;99.90
10911;DHT22;5508;49.150;11.030;2022-12-07T05:48:13;-0.70;99.90
10911;DHT22;5508;49.150;11.030;2022-12-07T05:51:14;-0.60;99.90
10911;DHT22;5508;49.150;11.030;2022-12-07T05:54:14;-0.60;99.90
10911;DHT22;5508;49.150;11.030;2022-12-07T05:57:15;-0.60;99.90
10911;DHT22;5508;49.150;11.030;2022-12-07T06:00:16;-0.60;99.90
10911;DHT22;5508;49.150;11.030;2022-12-07T06:03:16;-0.60;99.90
10911;DHT22;5508;49.150;11.030;2022-12-07T06:06:17;-0.50;99.90
10911;DHT22;5508;49.150;11.030;2022-12-07T06:09:19;-0.50;99.90
10911;DHT22;5508;49.150;11.030;2022-12-07T06:12:20;-0.40;99.90
10911;DHT22;5508;49.150;11.030;2022-12-07T06:15:39;-0.30;99.90
10911;DHT22;5508;49.150;11.030;2022-12-07T06:18:40;-0.20;99.90
10911;DHT22;5508;49.150;11.030;2022-12-07T06:21:41;-0.20;99.90
10911;DHT22;5508;49.150;11.030;2022-12-07T06:24:42;-0.20;99.90
10911;DHT22;5508;49.150;11.030;2022-12-07T06:27:42;-0.10;99.90
10911;DHT22;5508;49.150;11.030;2022-12-07T06:30:43;-0.10;99.90
10911;DHT22;5508;49.150;11.030;2022-12-07T06:33:44;0.00;99.90
10911;DHT22;5508;49.150;11.030;2022-12-07T06:36:45;0.00;99.90
10911;DHT22;5508;49.150;11.030;2022-12-07T06:39:47;0.00;99.90
10911;DHT22;5508;49.150;11.030;2022-12-07T06:42:48;0.00;99.90
10911;DHT22;5508;49.150;11.030;2022-12-07T06:45:49;0.10;99.90
10911;DHT22;5508;49.150;11.030;2022-12-07T06:48:49;0.20;99.90
10911;DHT22;5508;49.150;11.030;2022-12-07T06:51:50;0.20;99.90
10911;DHT22;5508;49.150;11.030;2022-12-07T06:54:50;0.20;99.90
10911;DHT22;5508;49.150;11.030;2022-12-07T06:57:51;0.20;99.90
10911;DHT22;5508;49.150;11.030;2022-12-07T07:00:52;0.20;99.90
10911;DHT22;5508;49.150;11.030;2022-12-07T07:03:52;0.20;99.90
10911;DHT22;5508;49.150;11.030;2022-12-07T07:06:53;0.20;99.90
10911;DHT22;5508;49.150;11.030;2022-12-07T07:09:53;0.20;99.90
10911;DHT22;5508;49.150;11.030;2022-12-07T07:12:54;0.20;99.90
10911;DHT22;5508;49.150;11.030;2022-12-07T07:15:55;0.30;99.90
10911;DHT22;5508;49.150;11.030;2022-12-07T07:18:56;0.30;99.90
10911;DHT22;5508;49.150;11.030;2022-12-07T07:21:56;0.30;99.90
10911;DHT22;5508;49.150;11.030;2022-12-07T07:24:57;0.30;99.90
10911;DHT22;5508;49.150;11.030;2022-12-07T07:27:57;0.40;99.90
10911;DHT22;5508;49.150;11.030;2022-12-07T07:30:58;0.40;99.90
10911;DHT22;5508;49.150;11.030;2022-12-07T07:33:59;0.40;99.90
10911;DHT22;5508;49.150;11.030;2022-12-07T07:36:59;0.40;99.90
10911;DHT22;5508;49.150;11.030;2022-12-07T07:40:00;0.50;99.90
10911;DHT22;5508;49.150;11.030;2022-12-07T07:43:00;0.50;99.90
10911;DHT22;5508;49.150;11.030;2022-12-07T07:46:01;0.50;99.90
10911;DHT22;5508;49.150;11.030;2022-12-07T07:49:01;0.60;99.90
10911;DHT22;5508;49.150;11.030;2022-12-07T07:52:03;0.60;99.90
10911;DHT22;5508;49.150;11.030;2022-12-07T07:55:04;0.60;99.90
10911;DHT22;5508;49.150;11.030;2022-12-07T07:58:05;0.60;99.90
10911;DHT22;5508;49.150;11.030;2022-12-07T08:01:06;0.80;99.90
10911;DHT22;5508;49.150;11.030;2022-12-07T08:04:07;0.80;99.90
10911;DHT22;5508;49.150;11.030;2022-12-07T08:07:07;0.90;99.90
10911;DHT22;5508;49.150;11.030;2022-12-07T08:10:11;1.00;99.90
10911;DHT22;5508;49.150;11.030;2022-12-07T08:13:15;1.00;99.90
10911;DHT22;5508;49.150;11.030;2022-12-07T08:16:16;1.10;99.90
10911;DHT22;5508;49.150;11.030;2022-12-07T08:19:17;1.20;99.90
10911;DHT22;5508;49.150;11.030;2022-12-07T08:22:17;1.20;99.90
10911;DHT22;5508;49.150;11.030;2022-12-07T08:25:19;1.30;99.90
10911;DHT22;5508;49.150;11.030;2022-12-07T08:28:21;1.30;99.90
10911;DHT22;5508;49.150;11.030;2022-12-07T08:31:21;1.30;99.90
10911;DHT22;5508;49.150;11.030;2022-12-07T08:34:22;1.40;99.90
10911;DHT22;5508;49.150;11.030;2022-12-07T08:37:22;1.40;99.90
10911;DHT22;5508;49.150;11.030;2022-12-07T08:40:23;1.50;99.90
10911;DHT22;5508;49.150;11.030;2022-12-07T08:43:24;1.50;99.90
10911;DHT22;5508;49.150;11.030;2022-12-07T08:46:34;1.60;99.90
10911;DHT22;5508;49.150;11.030;2022-12-07T08:49:41;1.60;99.90
10911;DHT22;5508;49.150;11.030;2022-12-07T08:52:42;1.50;99.90
10911;DHT22;5508;49.150;11.030;2022-12-07T08:55:45;1.60;99.90
10911;DHT22;5508;49.150;11.030;2022-12-07T08:58:46;1.70;99.90
10911;DHT22;5508;49.150;11.030;2022-12-07T09:01:47;1.70;99.90
10911;DHT22;5508;49.150;11.030;2022-12-07T09:04:48;1.90;99.90
10911;DHT22;5508;49.150;11.030;2022-12-07T09:07:51;1.90;99.90
10911;DHT22;5508;49.150;11.030;2022-12-07T09:10:52;2.00;99.90
10911;DHT22;5508;49.150;11.030;2022-12-07T09:13:53;2.10;99.90
10911;DHT22;5508;49.150;11.030;2022-12-07T09:16:53;2.10;99.90
10911;DHT22;5508;49.150;11.030;2022-12-07T09:19:54;2.10;99.90
10911;DHT22;5508;49.150;11.030;2022-12-07T09:22:55;2.00;99.90
10911;DHT22;5508;49.150;11.030;2022-12-07T09:26:02;2.10;99.90
10911;DHT22;5508;49.150;11.030;2022-12-07T09:29:02;2.20;99.90
10911;DHT22;5508;49.150;11.030;2022-12-07T09:32:03;2.30;99.90
10911;DHT22;5508;49.150;11.030;2022-12-07T09:35:04;2.40;99.90
10911;DHT22;5508;49.150;11.030;2022-12-07T09:38:05;2.50;99.90
10911;DHT22;5508;49.150;11.030;2022-12-07T09:41:06;2.50;99.90
10911;DHT22;5508;49.150;11.030;2022-12-07T09:44:13;2.50;99.90
10911;DHT22;5508;49.150;11.030;2022-12-07T09:47:14;2.60;99.00
10911;DHT22;5508;49.150;11.030;2022-12-07T09:50:17;2.60;97.20
10911;DHT22;5508;49.150;11.030;2022-12-07T09:53:33;2.50;95.70
10911;DHT22;5508;49.150;11.030;2022-12-07T09:56:34;2.60;97.30
10911;DHT22;5508;49.150;11.030;2022-12-07T09:59:35;2.70;99.90
10911;DHT22;5508;49.150;11.030;2022-12-07T10:02:38;2.60;97.10
10911;DHT22;5508;49.150;11.030;2022-12-07T10:05:45;2.50;96.40
10911;DHT22;5508;49.150;11.030;2022-12-07T10:08:46;2.50;95.90
10911;DHT22;5508;49.150;11.030;2022-12-07T10:12:00;2.70;96.50
10911;DHT22;5508;49.150;11.030;2022-12-07T10:15:03;2.70;95.60
10911;DHT22;5508;49.150;11.030;2022-12-07T10:21:38;2.80;94.90
10911;DHT22;5508;49.150;11.030;2022-12-07T10:24:41;2.80;94.20
10911;DHT22;5508;49.150;11.030;2022-12-07T10:27:42;2.80;92.90
10911;DHT22;5508;49.150;11.030;2022-12-07T10:30:59;2.80;92.40
10911;DHT22;5508;49.150;11.030;2022-12-07T10:34:02;2.80;93.30
10911;DHT22;5508;49.150;11.030;2022-12-07T10:40:33;3.00;93.10
10911;DHT22;5508;49.150;11.030;2022-12-07T10:43:34;2.90;94.30
10911;DHT22;5508;49.150;11.030;2022-12-07T10:53:43;2.90;91.90
10911;DHT22;5508;49.150;11.030;2022-12-07T11:00:43;2.70;92.50
10911;DHT22;5508;49.150;11.030;2022-12-07T11:04:14;2.80;93.20
10911;DHT22;5508;49.150;11.030;2022-12-07T11:10:48;2.70;92.10
10911;DHT22;5508;49.150;11.030;2022-12-07T11:14:01;2.80;91.40
10911;DHT22;5508;49.150;11.030;2022-12-07T11:17:26;2.90;92.50
10911;DHT22;5508;49.150;11.030;2022-12-07T11:24:04;2.90;91.90
10911;DHT22;5508;49.150;11.030;2022-12-07T11:37:36;2.80;93.10
10911;DHT22;5508;49.150;11.030;2022-12-07T11:40:38;2.80;94.00
10911;DHT22;5508;49.150;11.030;2022-12-07T11:47:45;2.60;97.70
10911;DHT22;5508;49.150;11.030;2022-12-07T11:50:48;2.60;98.80
10911;DHT22;5508;49.150;11.030;2022-12-07T11:53:55;2.60;99.90
10911;DHT22;5508;49.150;11.030;2022-12-07T11:57:18;2.50;99.90
10911;DHT22;5508;49.150;11.030;2022-12-07T12:00:20;2.50;99.90
10911;DHT22;5508;49.150;11.030;2022-12-07T12:03:29;2.50;99.90
10911;DHT22;5508;49.150;11.030;2022-12-07T12:06:32;2.50;99.90
10911;DHT22;5508;49.150;11.030;2022-12-07T12:10:25;2.60;99.90
10911;DHT22;5508;49.150;11.030;2022-12-07T12:13:15;2.70;99.90
10911;DHT22;5508;49.150;11.030;2022-12-07T12:26:31;2.80;99.30
10911;DHT22;5508;49.150;11.030;2022-12-07T12:29:38;2.80;99.80
10911;DHT22;5508;49.150;11.030;2022-12-07T12:32:42;2.90;99.90
10911;DHT22;5508;49.150;11.030;2022-12-07T12:35:43;2.80;99.90
10911;DHT22;5508;49.150;11.030;2022-12-07T12:42:00;2.80;99.90
10911;DHT22;5508;49.150;11.030;2022-12-07T12:45:11;2.80;99.90
10911;DHT22;5508;49.150;11.030;2022-12-07T12:48:35;2.80;99.90
10911;DHT22;5508;49.150;11.030;2022-12-07T12:51:39;2.80;99.90
10911;DHT22;5508;49.150;11.030;2022-12-07T13:01:36;2.60;99.90
10911;DHT22;5508;49.150;11.030;2022-12-07T13:04:51;2.70;99.90
10911;DHT22;5508;49.150;11.030;2022-12-07T13:07:54;2.80;99.90
10911;DHT22;5508;49.150;11.030;2022-12-07T13:11:18;2.70;99.90
10911;DHT22;5508;49.150;11.030;2022-12-07T13:14:42;2.60;99.90
10911;DHT22;5508;49.150;11.030;2022-12-07T13:20:47;2.50;99.90
10911;DHT22;5508;49.150;11.030;2022-12-07T13:26:56;2.60;99.90
10911;DHT22;5508;49.150;11.030;2022-12-07T13:29:57;2.70;99.90
10911;DHT22;5508;49.150;11.030;2022-12-07T13:32:59;2.70;99.90
10911;DHT22;5508;49.150;11.030;2022-12-07T13:36:00;2.60;99.90
10911;DHT22;5508;49.150;11.030;2022-12-07T13:39:16;2.70;99.90
10911;DHT22;5508;49.150;11.030;2022-12-07T13:42:29;2.70;99.90
10911;DHT22;5508;49.150;11.030;2022-12-07T13:45:32;2.70;99.90
10911;DHT22;5508;49.150;11.030;2022-12-07T13:48:49;2.70;99.90
10911;DHT22;5508;49.150;11.030;2022-12-07T13:51:51;2.70;99.90
10911;DHT22;5508;49.150;11.030;2022-12-07T13:55:14;2.70;99.90
10911;DHT22;5508;49.150;11.030;2022-12-07T13:58:15;2.70;99.90
10911;DHT22;5508;49.150;11.030;2022-12-07T14:01:15;2.70;99.90
10911;DHT22;5508;49.150;11.030;2022-12-07T14:04:32;2.70;99.90
10911;DHT22;5508;49.150;11.030;2022-12-07T14:07:33;2.70;99.90
10911;DHT22;5508;49.150;11.030;2022-12-07T14:13:58;2.70;99.90
10911;DHT22;5508;49.150;11.030;2022-12-07T14:17:08;2.60;99.90
10911;DHT22;5508;49.150;11.030;2022-12-07T14:20:50;2.50;99.90
10911;DHT22;5508;49.150;11.030;2022-12-07T14:27:21;2.50;99.90
10911;DHT22;5508;49.150;11.030;2022-12-07T14:30:23;2.40;99.90
10911;DHT22;5508;49.150;11.030;2022-12-07T14:33:24;2.40;99.90
10911;DHT22;5508;49.150;11.030;2022-12-07T14:36:25;2.40;99.90
10911;DHT22;5508;49.150;11.030;2022-12-07T14:39:26;2.40;99.90
10911;DHT22;5508;49.150;11.030;2022-12-07T14:42:28;2.40;99.90
10911;DHT22;5508;49.150;11.030;2022-12-07T14:45:30;2.30;99.90
10911;DHT22;5508;49.150;11.030;2022-12-07T14:48:31;2.40;99.90
10911;DHT22;5508;49.150;11.030;2022-12-07T14:51:32;2.40;99.90
10911;DHT22;5508;49.150;11.030;2022-12-07T14:54:33;2.40;99.90
10911;DHT22;5508;49.150;11.030;2022-12-07T14:57:34;2.30;99.90
10911;DHT22;5508;49.150;11.030;2022-12-07T15:00:35;2.30;99.90
10911;DHT22;5508;49.150;11.030;2022-12-07T15:03:35;2.30;99.90
10911;DHT22;5508;49.150;11.030;2022-12-07T15:06:38;2.30;99.90
10911;DHT22;5508;49.150;11.030;2022-12-07T15:09:39;2.30;99.90
10911;DHT22;5508;49.150;11.030;2022-12-07T15:12:39;2.30;99.90
10911;DHT22;5508;49.150;11.030;2022-12-07T15:15:40;2.20;99.90
10911;DHT22;5508;49.150;11.030;2022-12-07T15:18:40;2.20;99.90
10911;DHT22;5508;49.150;11.030;2022-12-07T15:21:41;2.20;99.90
10911;DHT22;5508;49.150;11.030;2022-12-07T15:24:42;2.20;99.90
10911;DHT22;5508;49.150;11.030;2022-12-07T15:27:42;2.20;99.90
10911;DHT22;5508;49.150;11.030;2022-12-07T15:30:44;2.10;99.90
10911;DHT22;5508;49.150;11.030;2022-12-07T15:33:45;2.00;99.90
10911;DHT22;5508;49.150;11.030;2022-12-07T15:36:46;2.00;99.90
10911;DHT22;5508;49.150;11.030;2022-12-07T15:39:47;2.00;99.90
10911;DHT22;5508;49.150;11.030;2022-12-07T15:42:47;2.00;99.90
10911;DHT22;5508;49.150;11.030;2022-12-07T15:45:49;2.00;99.90
10911;DHT22;5508;49.150;11.030;2022-12-07T15:48:50;1.90;99.90
10911;DHT22;5508;49.150;11.030;2022-12-07T15:51:51;1.90;99.90
10911;DHT22;5508;49.150;11.030;2022-12-07T15:54:51;1.90;99.90
10911;DHT22;5508;49.150;11.030;2022-12-07T15:57:52;1.80;99.90
10911;DHT22;5508;49.150;11.030;2022-12-07T16:00:52;1.90;99.90
10911;DHT22;5508;49.150;11.030;2022-12-07T16:03:53;1.90;99.90
10911;DHT22;5508;49.150;11.030;2022-12-07T16:06:54;2.00;99.90
10911;DHT22;5508;49.150;11.030;2022-12-07T16:09:55;1.90;99.90
10911;DHT22;5508;49.150;11.030;2022-12-07T16:12:55;1.90;99.90
10911;DHT22;5508;49.150;11.030;2022-12-07T16:15:56;1.90;99.90
10911;DHT22;5508;49.150;11.030;2022-12-07T16:18:57;1.90;99.90
10911;DHT22;5508;49.150;11.030;2022-12-07T16:21:58;1.90;99.90
10911;DHT22;5508;49.150;11.030;2022-12-07T16:24:59;1.90;99.90
10911;DHT22;5508;49.150;11.030;2022-12-07T16:28:00;1.90;99.90
10911;DHT22;5508;49.150;11.030;2022-12-07T16:31:12;1.90;99.90
10911;DHT22;5508;49.150;11.030;2022-12-07T16:34:13;1.80;99.90
10911;DHT22;5508;49.150;11.030;2022-12-07T16:37:13;1.80;99.90
10911;DHT22;5508;49.150;11.030;2022-12-07T16:40:14;1.80;99.90
10911;DHT22;5508;49.150;11.030;2022-12-07T16:43:15;1.90;99.90
10911;DHT22;5508;49.150;11.030;2022-12-07T16:46:16;1.80;99.90
10911;DHT22;5508;49.150;11.030;2022-12-07T16:49:17;1.80;99.90
10911;DHT22;5508;49.150;11.030;2022-12-07T16:52:20;1.80;99.90
10911;DHT22;5508;49.150;11.030;2022-12-07T16:55:20;1.80;99.90
10911;DHT22;5508;49.150;11.030;2022-12-07T16:58:21;1.70;99.90
10911;DHT22;5508;49.150;11.030;2022-12-07T17:01:22;1.80;99.90
10911;DHT22;5508;49.150;11.030;2022-12-07T17:04:23;1.80;99.90
10911;DHT22;5508;49.150;11.030;2022-12-07T17:07:23;1.80;99.90
10911;DHT22;5508;49.150;11.030;2022-12-07T17:10:25;1.80;99.90
10911;DHT22;5508;49.150;11.030;2022-12-07T17:13:26;1.70;99.90
10911;DHT22;5508;49.150;11.030;2022-12-07T17:16:45;1.60;99.90
10911;DHT22;5508;49.150;11.030;2022-12-07T17:19:46;1.60;99.90
10911;DHT22;5508;49.150;11.030;2022-12-07T17:22:46;1.50;99.90
10911;DHT22;5508;49.150;11.030;2022-12-07T17:25:47;1.50;99.90
10911;DHT22;5508;49.150;11.030;2022-12-07T17:28:48;1.60;99.90
10911;DHT22;5508;49.150;11.030;2022-12-07T17:31:48;1.60;99.90
10911;DHT22;5508;49.150;11.030;2022-12-07T17:34:49;1.60;99.90
10911;DHT22;5508;49.150;11.030;2022-12-07T17:37:50;1.60;99.90
10911;DHT22;5508;49.150;11.030;2022-12-07T17:40:50;1.60;99.90
10911;DHT22;5508;49.150;11.030;2022-12-07T17:43:51;1.60;99.90
10911;DHT22;5508;49.150;11.030;2022-12-07T17:46:53;1.60;99.90
10911;DHT22;5508;49.150;11.030;2022-12-07T17:49:54;1.70;99.90
10911;DHT22;5508;49.150;11.030;2022-12-07T17:52:55;1.60;99.90
10911;DHT22;5508;49.150;11.030;2022-12-07T17:56:10;1.60;99.90
10911;DHT22;5508;49.150;11.030;2022-12-07T17:59:11;1.60;99.90
10911;DHT22;5508;49.150;11.030;2022-12-07T18:02:12;1.60;99.90
10911;DHT22;5508;49.150;11.030;2022-12-07T18:05:13;1.50;99.90
10911;DHT22;5508;49.150;11.030;2022-12-07T18:08:14;1.60;99.90
10911;DHT22;5508;49.150;11.030;2022-12-07T18:11:14;1.60;99.90
10911;DHT22;5508;49.150;11.030;2022-12-07T18:14:15;1.60;99.90
10911;DHT22;5508;49.150;11.030;2022-12-07T18:17:17;1.60;99.90
10911;DHT22;5508;49.150;11.030;2022-12-07T18:20:17;1.60;99.90
10911;DHT22;5508;49.150;11.030;2022-12-07T18:23:18;1.60;99.90
10911;DHT22;5508;49.150;11.030;2022-12-07T18:26:21;1.60;99.90
10911;DHT22;5508;49.150;11.030;2022-12-07T18:29:22;1.60;99.90
10911;DHT22;5508;49.150;11.030;2022-12-07T18:32:23;1.60;99.90
10911;DHT22;5508;49.150;11.030;2022-12-07T18:35:23;1.50;99.90
10911;DHT22;5508;49.150;11.030;2022-12-07T18:38:26;1.60;99.90
10911;DHT22;5508;49.150;11.030;2022-12-07T18:41:26;1.50;99.90
10911;DHT22;5508;49.150;11.030;2022-12-07T18:44:27;1.60;99.90
10911;DHT22;5508;49.150;11.030;2022-12-07T18:47:28;1.60;99.90
10911;DHT22;5508;49.150;11.030;2022-12-07T18:50:28;1.60;99.90
10911;DHT22;5508;49.150;11.030;2022-12-07T18:53:31;1.60;99.90
10911;DHT22;5508;49.150;11.030;2022-12-07T18:56:31;1.50;99.90
10911;DHT22;5508;49.150;11.030;2022-12-07T18:59:32;1.60;99.90
10911;DHT22;5508;49.150;11.030;2022-12-07T19:02:50;1.60;99.90
10911;DHT22;5508;49.150;11.030;2022-12-07T19:05:51;1.60;99.90
10911;DHT22;5508;49.150;11.030;2022-12-07T19:08:52;1.60;99.90
10911;DHT22;5508;49.150;11.030;2022-12-07T19:11:53;1.60;99.90
10911;DHT22;5508;49.150;11.030;2022-12-07T19:14:55;1.60;99.90
10911;DHT22;5508;49.150;11.030;2022-12-07T19:17:56;1.60;99.90
10911;DHT22;5508;49.150;11.030;2022-12-07T19:20:56;1.60;99.90
10911;DHT22;5508;49.150;11.030;2022-12-07T19:23:57;1.60;99.90
10911;DHT22;5508;49.150;11.030;2022-12-07T19:26:58;1.60;99.90
10911;DHT22;5508;49.150;11.030;2022-12-07T19:29:59;1.60;99.90
10911;DHT22;5508;49.150;11.030;2022-12-07T19:32:59;1.60;99.90
10911;DHT22;5508;49.150;11.030;2022-12-07T19:36:00;1.60;99.90
10911;DHT22;5508;49.150;11.030;2022-12-07T19:39:00;1.60;99.90
10911;DHT22;5508;49.150;11.030;2022-12-07T19:42:02;1.50;99.90
10911;DHT22;5508;49.150;11.030;2022-12-07T19:45:03;1.50;99.90
10911;DHT22;5508;49.150;11.030;2022-12-07T19:48:04;1.50;99.90
10911;DHT22;5508;49.150;11.030;2022-12-07T19:51:04;1.50;99.90
10911;DHT22;5508;49.150;11.030;2022-12-07T19:54:05;1.50;99.90
10911;DHT22;5508;49.150;11.030;2022-12-07T19:57:06;1.50;99.90
10911;DHT22;5508;49.150;11.030;2022-12-07T20:00:09;1.40;99.90
10911;DHT22;5508;49.150;11.030;2022-12-07T20:03:09;1.50;99.90
10911;DHT22;5508;49.150;11.030;2022-12-07T20:06:12;1.50;99.90
10911;DHT22;5508;49.150;11.030;2022-12-07T20:09:13;1.50;99.90
10911;DHT22;5508;49.150;11.030;2022-12-07T20:12:14;1.40;99.90
10911;DHT22;5508;49.150;11.030;2022-12-07T20:15:36;1.40;99.90
10911;DHT22;5508;49.150;11.030;2022-12-07T20:18:37;1.30;99.90
10911;DHT22;5508;49.150;11.030;2022-12-07T20:21:38;1.30;99.90
10911;DHT22;5508;49.150;11.030;2022-12-07T20:24:39;1.30;99.90
10911;DHT22;5508;49.150;11.030;2022-12-07T20:27:39;1.40;99.90
10911;DHT22;5508;49.150;11.030;2022-12-07T20:30:51;1.50;99.90
10911;DHT22;5508;49.150;11.030;2022-12-07T20:33:52;1.40;99.90
10911;DHT22;5508;49.150;11.030;2022-12-07T20:36:53;1.40;99.90
10911;DHT22;5508;49.150;11.030;2022-12-07T20:39:54;1.30;99.90
10911;DHT22;5508;49.150;11.030;2022-12-07T20:42:55;1.30;99.90
10911;DHT22;5508;49.150;11.030;2022-12-07T20:45:56;1.20;99.90
10911;DHT22;5508;49.150;11.030;2022-12-07T20:48:57;1.20;99.90
10911;DHT22;5508;49.150;11.030;2022-12-07T20:52:00;1.30;99.90
10911;DHT22;5508;49.150;11.030;2022-12-07T20:55:01;1.20;99.90
10911;DHT22;5508;49.150;11.030;2022-12-07T20:58:01;1.10;99.90
10911;DHT22;5508;49.150;11.030;2022-12-07T21:01:03;1.10;99.90